sensor_id;sensor_type;location;lat;lon;timestamp;temperature;humidity
54516;DHT22;40422;45.892;4.738;2023-04-07T03:02:41;8.90;99.90
54516;DHT22;40422;45.892;4.738;2023-04-07T03:05:08;8.90;99.90
54516;DHT22;40422;45.892;4.738;2023-04-07T03:07:34;8.90;99.90
54516;DHT22;40422;45.892;4.738;2023-04-07T03:10:00;9.00;99.90
54516;DHT22;40422;45.892;4.738;2023-04-07T03:12:25;9.00;99.90
54516;DHT22;40422;45.892;4.738;2023-04-07T03:14:51;9.00;99.90
54516;DHT22;40422;45.892;4.738;2023-04-07T03:17:17;9.00;99.90
54516;DHT22;40422;45.892;4.738;2023-04-07T03:19:42;9.00;99.90
54516;DHT22;40422;45.892;4.738;2023-04-07T03:22:08;9.00;99.90
54516;DHT22;40422;45.892;4.738;2023-04-07T03:24:33;9.00;99.90
54516;DHT22;40422;45.892;4.738;2023-04-07T03:26:59;9.00;99.90
54516;DHT22;40422;45.892;4.738;2023-04-07T03:29:26;9.00;99.90
54516;DHT22;40422;45.892;4.738;2023-04-07T03:31:52;8.90;99.90
54516;DHT22;40422;45.892;4.738;2023-04-07T03:34:17;8.90;99.90
54516;DHT22;40422;45.892;4.738;2023-04-07T03:36:43;8.90;99.90
54516;DHT22;40422;45.892;4.738;2023-04-07T03:39:09;8.90;99.90
54516;DHT22;40422;45.892;4.738;2023-04-07T03:41:34;8.90;99.90
54516;DHT22;40422;45.892;4.738;2023-04-07T03:44:00;8.90;99.90
54516;DHT22;40422;45.892;4.738;2023-04-07T03:46:26;8.90;99.90
54516;DHT22;40422;45.892;4.738;2023-04-07T03:48:51;8.90;99.90
54516;DHT22;40422;45.892;4.738;2023-04-07T03:51:17;8.90;99.90
54516;DHT22;40422;45.892;4.738;2023-04-07T03:53:43;8.90;99.90
54516;DHT22;40422;45.892;4.738;2023-04-07T03:56:09;8.90;99.90
54516;DHT22;40422;45.892;4.738;2023-04-07T03:58:34;8.90;99.90
54516;DHT22;40422;45.892;4.738;2023-04-07T04:01:00;8.90;99.90
54516;DHT22;40422;45.892;4.738;2023-04-07T04:03:26;8.90;99.90
54516;DHT22;40422;45.892;4.738;2023-04-07T04:05:51;8.90;99.90
54516;DHT22;40422;45.892;4.738;2023-04-07T04:08:17;8.90;99.90
54516;DHT22;40422;45.892;4.738;2023-04-07T04:10:42;8.90;99.90
54516;DHT22;40422;45.892;4.738;2023-04-07T04:13:08;8.90;99.90
54516;DHT22;40422;45.892;4.738;2023-04-07T04:15:34;8.80;99.90
54516;DHT22;40422;45.892;4.738;2023-04-07T04:17:59;8.90;99.90
54516;DHT22;40422;45.892;4.738;2023-04-07T04:20:25;8.80;99.90
54516;DHT22;40422;45.892;4.738;2023-04-07T04:22:51;8.90;99.90
54516;DHT22;40422;45.892;4.738;2023-04-07T04:25:16;8.80;99.90
54516;DHT22;40422;45.892;4.738;2023-04-07T04:27:42;8.70;99.90
54516;DHT22;40422;45.892;4.738;2023-04-07T04:30:08;8.70;99.90
54516;DHT22;40422;45.892;4.738;2023-04-07T04:32:34;8.80;99.90
54516;DHT22;40422;45.892;4.738;2023-04-07T04:35:00;8.80;99.90
54516;DHT22;40422;45.892;4.738;2023-04-07T04:37:27;8.80;99.90
54516;DHT22;40422;45.892;4.738;2023-04-07T04:39:52;8.90;99.90
54516;DHT22;40422;45.892;4.738;2023-04-07T04:42:18;8.90;99.90
54516;DHT22;40422;45.892;4.738;2023-04-07T04:44:44;8.90;99.90
54516;DHT22;40422;45.892;4.738;2023-04-07T04:47:09;8.90;99.90
54516;DHT22;40422;45.892;4.738;2023-04-07T04:49:35;8.90;99.90
54516;DHT22;40422;45.892;4.738;2023-04-07T04:52:01;8.90;99.90
54516;DHT22;40422;45.892;4.738;2023-04-07T04:54:27;9.00;99.90
54516;DHT22;40422;45.892;4.738;2023-04-07T04:56:52;9.00;99.90
54516;DHT22;40422;45.892;4.738;2023-04-07T04:59:18;9.00;99.90
54516;DHT22;40422;45.892;4.738;2023-04-07T05:01:43;9.00;99.90
54516;DHT22;40422;45.892;4.738;2023-04-07T05:04:09;9.10;99.90
54516;DHT22;40422;45.892;4.738;2023-04-07T05:06:35;9.20;99.90
54516;DHT22;40422;45.892;4.738;2023-04-07T05:09:00;9.50;99.90
54516;DHT22;40422;45.892;4.738;2023-04-07T05:11:26;9.70;99.90
54516;DHT22;40422;45.892;4.738;2023-04-07T05:13:52;9.90;99.90
54516;DHT22;40422;45.892;4.738;2023-04-07T05:16:17;10.10;99.90
54516;DHT22;40422;45.892;4.738;2023-04-07T05:18:43;10.20;99.90
54516;DHT22;40422;45.892;4.738;2023-04-07T05:21:08;10.20;99.90
54516;DHT22;40422;45.892;4.738;2023-04-07T05:23:35;10.30;99.90
54516;DHT22;40422;45.892;4.738;2023-04-07T05:26:00;10.40;99.90
54516;DHT22;40422;45.892;4.738;2023-04-07T05:28:26;10.40;99.90
54516;DHT22;40422;45.892;4.738;2023-04-07T05:30:52;10.50;99.90
54516;DHT22;40422;45.892;4.738;2023-04-07T05:33:17;10.50;99.90
54516;DHT22;40422;45.892;4.738;2023-04-07T05:35:44;10.50;99.90
54516;DHT22;40422;45.892;4.738;2023-04-07T05:38:10;10.60;99.90
54516;DHT22;40422;45.892;4.738;2023-04-07T05:40:36;10.60;99.90
54516;DHT22;40422;45.892;4.738;2023-04-07T05:43:02;10.70;99.90
54516;DHT22;40422;45.892;4.738;2023-04-07T05:45:27;10.70;99.90
54516;DHT22;40422;45.892;4.738;2023-04-07T05:47:53;10.70;99.90
54516;DHT22;40422;45.892;4.738;2023-04-07T05:50:19;10.80;99.90
54516;DHT22;40422;45.892;4.738;2023-04-07T05:52:44;10.80;99.90
54516;DHT22;40422;45.892;4.738;2023-04-07T05:55:10;10.80;99.90
54516;DHT22;40422;45.892;4.738;2023-04-07T05:57:36;10.70;99.90
54516;DHT22;40422;45.892;4.738;2023-04-07T06:00:02;10.70;99.90
54516;DHT22;40422;45.892;4.738;2023-04-07T06:02:29;10.70;99.90
54516;DHT22;40422;45.892;4.738;2023-04-07T06:04:54;10.70;99.90
54516;DHT22;40422;45.892;4.738;2023-04-07T06:07:20;10.70;99.90
54516;DHT22;40422;45.892;4.738;2023-04-07T06:09:46;10.70;99.90
54516;DHT22;40422;45.892;4.738;2023-04-07T06:12:11;10.80;99.90
54516;DHT22;40422;45.892;4.738;2023-04-07T06:14:38;10.80;99.90
54516;DHT22;40422;45.892;4.738;2023-04-07T06:17:04;10.90;99.90
54516;DHT22;40422;45.892;4.738;2023-04-07T06:19:29;10.90;99.90
54516;DHT22;40422;45.892;4.738;2023-04-07T06:21:55;10.90;99.90
54516;DHT22;40422;45.892;4.738;2023-04-07T06:24:20;11.00;99.90
54516;DHT22;40422;45.892;4.738;2023-04-07T06:26:50;11.00;99.90
54516;DHT22;40422;45.892;4.738;2023-04-07T06:29:16;11.10;99.90
54516;DHT22;40422;45.892;4.738;2023-04-07T06:31:42;11.10;99.90
54516;DHT22;40422;45.892;4.738;2023-04-07T06:34:07;11.10;99.90
54516;DHT22;40422;45.892;4.738;2023-04-07T06:36:33;11.10;99.90
54516;DHT22;40422;45.892;4.738;2023-04-07T06:38:59;11.20;99.90
54516;DHT22;40422;45.892;4.738;2023-04-07T06:41:24;11.20;99.90
54516;DHT22;40422;45.892;4.738;2023-04-07T06:43:50;11.40;99.90
54516;DHT22;40422;45.892;4.738;2023-04-07T06:46:16;11.40;99.90
54516;DHT22;40422;45.892;4.738;2023-04-07T06:48:42;11.50;99.90
54516;DHT22;40422;45.892;4.738;2023-04-07T06:51:08;11.60;99.90
54516;DHT22;40422;45.892;4.738;2023-04-07T06:53:34;11.60;99.90
54516;DHT22;40422;45.892;4.738;2023-04-07T06:56:07;11.70;99.90
54516;DHT22;40422;45.892;4.738;2023-04-07T06:58:33;11.80;99.90
54516;DHT22;40422;45.892;4.738;2023-04-07T07:00:59;11.80;99.90
54516;DHT22;40422;45.892;4.738;2023-04-07T07:03:25;11.80;99.90
54516;DHT22;40422;45.892;4.738;2023-04-07T07:05:55;11.90;99.90
54516;DHT22;40422;45.892;4.738;2023-04-07T07:08:24;11.90;99.90
54516;DHT22;40422;45.892;4.738;2023-04-07T07:10:50;11.90;99.90
54516;DHT22;40422;45.892;4.738;2023-04-07T07:13:17;11.90;99.90
54516;DHT22;40422;45.892;4.738;2023-04-07T07:15:43;11.80;99.90
54516;DHT22;40422;45.892;4.738;2023-04-07T07:18:11;11.60;99.90
54516;DHT22;40422;45.892;4.738;2023-04-07T07:20:37;11.60;99.90
54516;DHT22;40422;45.892;4.738;2023-04-07T07:23:02;11.60;99.90
54516;DHT22;40422;45.892;4.738;2023-04-07T07:25:28;11.60;99.90
54516;DHT22;40422;45.892;4.738;2023-04-07T07:27:54;11.60;99.90
54516;DHT22;40422;45.892;4.738;2023-04-07T07:30:23;11.70;99.90
54516;DHT22;40422;45.892;4.738;2023-04-07T07:32:49;11.90;99.90
54516;DHT22;40422;45.892;4.738;2023-04-07T07:35:16;12.10;99.90
54516;DHT22;40422;45.892;4.738;2023-04-07T07:37:41;12.30;99.90
54516;DHT22;40422;45.892;4.738;2023-04-07T07:40:09;12.40;99.90
54516;DHT22;40422;45.892;4.738;2023-04-07T07:42:35;12.50;99.90
54516;DHT22;40422;45.892;4.738;2023-04-07T07:45:01;12.60;99.90
54516;DHT22;40422;45.892;4.738;2023-04-07T07:47:27;12.80;99.90
54516;DHT22;40422;45.892;4.738;2023-04-07T07:49:52;12.80;99.90
54516;DHT22;40422;45.892;4.738;2023-04-07T07:52:18;12.90;99.90
54516;DHT22;40422;45.892;4.738;2023-04-07T07:54:45;12.90;99.90
54516;DHT22;40422;45.892;4.738;2023-04-07T07:57:11;13.00;99.90
54516;DHT22;40422;45.892;4.738;2023-04-07T07:59:37;12.90;99.60
54516;DHT22;40422;45.892;4.738;2023-04-07T08:02:03;12.80;99.00
54516;DHT22;40422;45.892;4.738;2023-04-07T08:04:28;12.90;99.30
54516;DHT22;40422;45.892;4.738;2023-04-07T08:06:54;12.90;98.60
54516;DHT22;40422;45.892;4.738;2023-04-07T08:09:20;12.90;99.60
54516;DHT22;40422;45.892;4.738;2023-04-07T08:11:46;13.00;98.80
54516;DHT22;40422;45.892;4.738;2023-04-07T08:14:16;13.10;97.80
54516;DHT22;40422;45.892;4.738;2023-04-07T08:16:42;13.10;97.80
54516;DHT22;40422;45.892;4.738;2023-04-07T08:19:08;13.10;97.70
54516;DHT22;40422;45.892;4.738;2023-04-07T08:21:34;13.00;96.80
54516;DHT22;40422;45.892;4.738;2023-04-07T08:24:00;12.90;96.90
54516;DHT22;40422;45.892;4.738;2023-04-07T08:26:26;13.00;96.40
54516;DHT22;40422;45.892;4.738;2023-04-07T08:28:52;13.00;96.70
54516;DHT22;40422;45.892;4.738;2023-04-07T08:31:18;13.10;97.70
54516;DHT22;40422;45.892;4.738;2023-04-07T08:33:44;13.30;97.50
54516;DHT22;40422;45.892;4.738;2023-04-07T08:36:09;13.50;96.70
54516;DHT22;40422;45.892;4.738;2023-04-07T08:38:35;13.70;96.10
54516;DHT22;40422;45.892;4.738;2023-04-07T08:41:10;13.40;93.80
54516;DHT22;40422;45.892;4.738;2023-04-07T08:43:38;13.50;94.30
54516;DHT22;40422;45.892;4.738;2023-04-07T08:46:04;13.70;95.40
54516;DHT22;40422;45.892;4.738;2023-04-07T08:48:30;13.50;93.10
54516;DHT22;40422;45.892;4.738;2023-04-07T08:51:04;13.50;93.60
54516;DHT22;40422;45.892;4.738;2023-04-07T08:53:37;13.70;93.90
54516;DHT22;40422;45.892;4.738;2023-04-07T08:56:05;13.90;93.30
54516;DHT22;40422;45.892;4.738;2023-04-07T08:58:35;13.90;92.10
54516;DHT22;40422;45.892;4.738;2023-04-07T09:01:05;14.10;92.40
54516;DHT22;40422;45.892;4.738;2023-04-07T09:03:32;14.40;92.60
54516;DHT22;40422;45.892;4.738;2023-04-07T09:06:00;14.50;91.40
